Time;durP1;ratioP1;P1;durP2;ratioP2;P2;SDS_P1;SDS_P2;PMS_P1;PMS_P2;Temp;Humidity;BMP_temperature;BMP_pressure;BME280_temperature;BME280_humidity;BME280_pressure;Samples;Min_cycle;Max_cycle;Signal;HPM_P1;HPM_P2
2021/06/12 00:10:34;;;;;;;7.68;4.72;;;;;;;21.12;54.34;100468.84;5241139;27;20122;-84
2021/06/12 00:32:14;;;;;;;4.82;4.07;;;;;;;20.89;55.49;100453.06;5144788;27;20126;-84
2021/06/12 00:36:00;;;;;;;;;;;;;;;;;;;;;
2021/06/12 00:57:31;;;;;;;;;;;;;;;;;;;;;
2021/06/12 02:17:29;;;;;;;5.20;4.47;;;;;;;20.02;57.45;100460.56;5228777;27;20077;-83
2021/06/12 02:20:20;;;;;;;5.55;4.50;;;;;;;20.05;57.28;100447.94;5207760;27;20060;-83
2021/06/12 02:23:41;;;;;;;;;;;;;;;;;;;;;
2021/06/12 02:26:48;;;;;;;6.60;4.93;;;;;;;19.72;58.43;100447.63;5103489;28;20399;-83
2021/06/12 04:38:28;;;;;;;4.90;3.25;;;;;;;28.74;34.98;100451.34;5330464;26;20068;-84
2021/06/12 04:40:56;;;;;;;3.20;2.47;;;;;;;28.03;36.38;100454.22;5346693;26;20463;-83
2021/06/12 04:43:23;;;;;;;3.37;2.87;;;;;;;27.37;37.77;100455.66;5345304;26;20063;-84
2021/06/12 04:45:50;;;;;;;4.12;3.37;;;;;;;27.49;37.31;100452.03;5342892;26;20122;-84
2021/06/12 04:48:18;;;;;;;5.28;3.42;;;;;;;26.88;39.21;100452.00;5342922;26;20099;-83
2021/06/12 04:50:45;;;;;;;3.72;2.97;;;;;;;26.93;39.47;100446.31;5343228;26;20462;-83
2021/06/12 04:53:12;;;;;;;5.05;3.08;;;;;;;27.07;39.07;100445.28;5342911;26;20059;-83
2021/06/12 04:55:39;;;;;;;3.70;2.78;;;;;;;27.01;39.08;100460.09;5323742;26;20068;-83
2021/06/12 04:58:09;;;;;;;4.22;3.00;;;;;;;26.48;39.20;100457.56;5346719;26;20128;-83
2021/06/12 05:00:39;;;;;;;3.45;3.15;;;;;;;26.59;39.48;100461.34;5347609;26;20099;-83
2021/06/12 05:25:35;;;;;;;5.03;3.35;;;;;;;25.75;41.33;100468.91;5110806;28;20131;-82
2021/06/12 05:28:01;;;;;;;3.62;3.20;;;;;;;25.73;41.70;100473.53;5136605;27;20059;-83
2021/06/12 05:30:28;;;;;;;2.92;2.53;;;;;;;26.91;41.00;100470.69;5282055;27;20184;-83
2021/06/12 06:03:35;;;;;;;4.05;3.40;;;;;;;29.12;35.48;100463.56;5311243;26;20123;-82
2021/06/12 06:06:02;;;;;;;5.03;2.80;;;;;;;30.51;34.94;100456.25;5388251;26;20088;-83
2021/06/12 06:08:29;;;;;;;4.12;3.20;;;;;;;30.51;33.29;100470.69;5387434;26;20070;-83
2021/06/12 06:10:56;;;;;;;4.10;3.55;;;;;;;30.33;33.39;100472.31;5387717;26;20103;-83
2021/06/12 06:13:23;;;;;;;4.47;3.22;;;;;;;30.06;34.26;100476.38;5387687;26;20108;-83
2021/06/12 06:15:52;;;;;;;9.37;3.70;;;;;;;30.10;35.47;100469.69;5387311;26;20108;-83
2021/06/12 06:18:19;;;;;;;3.85;3.37;;;;;;;30.61;33.41;100472.56;5388096;26;20069;-83
2021/06/12 06:20:45;;;;;;;5.35;3.47;;;;;;;29.57;35.25;100485.09;5387693;26;20119;-82
2021/06/12 06:23:12;;;;;;;4.30;3.20;;;;;;;29.38;35.38;100475.78;5387898;26;20457;-82
2021/06/12 06:25:39;;;;;;;4.47;3.45;;;;;;;29.64;35.15;100478.19;5387716;26;20084;-83
2021/06/12 06:28:06;;;;;;;4.12;3.22;;;;;;;29.14;36.15;100472.44;5387852;26;20124;-83
2021/06/12 06:30:33;;;;;;;6.12;3.67;;;;;;;27.87;39.31;100477.13;5389812;26;20083;-82
2021/06/12 06:33:00;;;;;;;5.70;3.67;;;;;;;27.72;39.34;100481.81;5388022;26;20059;-82
2021/06/12 06:35:28;;;;;;;4.62;3.97;;;;;;;26.80;40.80;100478.69;5387526;26;20027;-82
2021/06/12 06:37:55;;;;;;;6.40;4.35;;;;;;;26.28;42.45;100476.97;5389714;26;20053;-82
2021/06/12 06:41:51;;;;;;;;;;;;;;;;;;;;;
2021/06/12 07:26:07;;;;;;;4.45;3.65;;;;;;;28.66;39.34;100475.41;5301000;27;20591;-82
2021/06/12 07:29:41;;;;;;;4.20;3.80;;;;;;;28.65;38.13;100479.97;5195095;27;20074;-82
2021/06/12 08:31:04;;;;;;;3.83;3.53;;;;;;;32.46;30.62;100465.47;5344610;26;20072;-83
2021/06/12 08:33:36;;;;;;;5.20;3.40;;;;;;;32.68;30.96;100459.66;5343066;26;20136;-83
2021/06/12 08:36:04;;;;;;;4.43;3.87;;;;;;;33.64;30.54;100460.03;5342858;26;20076;-81
2021/06/12 08:38:31;;;;;;;3.62;3.33;;;;;;;33.39;28.66;100458.09;5342984;26;20121;-81
2021/06/12 09:03:08;;;;;;;4.95;4.00;;;;;;;32.12;31.19;100468.66;5357915;26;20112;-84
2021/06/12 09:05:48;;;;;;;4.60;3.90;;;;;;;33.00;30.00;100450.16;5345829;26;20056;-84
2021/06/12 09:08:40;;;;;;;4.50;3.80;;;;;;;33.08;29.71;100463.87;5349739;26;20078;-83
2021/06/12 09:11:19;;;;;;;4.82;3.35;;;;;;;33.60;29.38;100453.22;5345917;26;20078;-84
2021/06/12 09:14:01;;;;;;;4.32;3.75;;;;;;;34.20;29.17;100455.22;5366691;26;20070;-84
2021/06/12 09:16:31;;;;;;;4.05;3.65;;;;;;;34.18;27.63;100457.28;5367069;26;20024;-85
2021/06/12 09:19:18;;;;;;;4.32;3.90;;;;;;;34.25;27.57;100452.03;5366928;26;20028;-83
2021/06/12 09:21:47;;;;;;;5.20;4.40;;;;;;;32.36;30.43;100446.44;5366271;26;20097;-83
2021/06/12 09:24:22;;;;;;;;;;;;;;;32.55;29.96;100449.09;5347328;26;20573;-83
2021/06/12 09:26:52;;;;;;;5.78;3.83;;;;;;;33.83;28.50;100458.19;5346132;26;20011;-84
2021/06/12 09:29:20;;;;;;;4.53;4.07;;;;;;;34.72;26.79;100448.88;5346633;26;20129;-83
2021/06/12 09:31:51;;;;;;;7.28;4.43;;;;;;;35.20;26.57;100448.19;5366957;26;20060;-83
2021/06/12 09:46:45;;;;;;;4.85;4.35;;;;;;;35.21;25.51;100457.22;5262166;27;20141;-83
2021/06/12 09:58:16;;;;;;;4.15;3.75;;;;;;;36.76;24.57;100434.41;5196468;27;20031;-83
2021/06/12 10:01:58;;;;;;;;;;;;;;;;;;;;;
2021/06/12 10:09:13;;;;;;;6.93;3.67;;;;;;;35.85;24.76;100432.88;5174810;27;20067;-82
2021/06/12 10:23:53;;;;;;;5.37;4.32;;;;;;;38.33;22.64;100422.09;5045652;28;20065;-83
2021/06/12 10:26:21;;;;;;;5.30;4.43;;;;;;;38.84;21.82;100413.91;5069082;27;20111;-83
2021/06/12 10:28:49;;;;;;;6.90;4.22;;;;;;;39.54;22.52;100415.12;5189895;27;20063;-82
2021/06/12 10:31:26;;;;;;;4.95;4.55;;;;;;;39.83;21.12;100413.25;5208285;27;20065;-83
2021/06/12 11:28:33;;;;;;;4.90;4.10;;;;;;;38.98;22.46;100332.56;5365979;26;20024;-81
2021/06/12 11:31:37;;;;;;;5.43;4.30;;;;;;;38.81;20.98;100331.91;5366686;26;20026;-82
2021/06/12 11:57:04;;;;;;;5.05;4.18;;;;;;;38.37;22.10;100309.00;5303898;26;20080;-84
2021/06/12 11:59:34;;;;;;;4.45;4.05;;;;;;;38.36;23.15;100309.19;5370962;26;20024;-83
2021/06/12 12:02:06;;;;;;;3.97;3.58;;;;;;;38.65;21.08;100300.03;5371648;26;20075;-84
2021/06/12 12:24:36;;;;;;;7.37;4.00;;;;;;;38.22;21.96;100299.09;5357543;26;20056;-82
2021/06/12 12:27:08;;;;;;;4.50;3.90;;;;;;;37.93;23.42;100317.25;5365298;26;20052;-82
2021/06/12 12:29:39;;;;;;;5.05;3.65;;;;;;;38.10;23.33;100306.97;5365858;26;20064;-82
2021/06/12 12:32:07;;;;;;;3.35;3.00;;;;;;;37.47;23.82;100323.69;5346139;26;20083;-82
2021/06/12 12:34:37;;;;;;;3.83;2.75;;;;;;;36.82;24.67;100319.53;5365075;26;20489;-81
2021/06/12 12:37:22;;;;;;;5.75;2.53;;;;;;;36.38;24.95;100306.44;5365247;26;20141;-81
2021/06/12 12:39:52;;;;;;;6.55;2.80;;;;;;;36.56;24.24;100303.50;5345089;26;20055;-81
2021/06/12 12:42:23;;;;;;;3.95;2.12;;;;;;;36.61;24.40;100302.94;5365538;26;20064;-81
2021/06/12 12:44:53;;;;;;;2.58;2.35;;;;;;;36.57;23.62;100301.59;5365304;26;20058;-81
2021/06/12 12:47:25;;;;;;;2.47;2.00;;;;;;;36.62;23.06;100296.41;5364889;26;20108;-81
2021/06/12 12:49:53;;;;;;;5.53;3.05;;;;;;;36.56;23.90;100297.13;5363855;26;20543;-81
2021/06/12 12:52:23;;;;;;;5.70;2.90;;;;;;;36.99;24.25;100303.84;5366277;26;20028;-82
2021/06/12 12:54:56;;;;;;;3.72;2.70;;;;;;;37.16;23.40;100303.78;5369548;26;20534;-82
2021/06/12 12:57:23;;;;;;;3.25;2.22;;;;;;;37.52;23.44;100293.00;5366613;26;20047;-82
2021/06/12 12:59:50;;;;;;;3.62;2.37;;;;;;;37.36;24.04;100295.88;5366646;26;20068;-82
2021/06/12 13:02:17;;;;;;;4.93;2.58;;;;;;;37.37;24.39;100290.22;5366776;26;20060;-82
2021/06/12 13:04:45;;;;;;;4.55;2.92;;;;;;;37.42;23.92;100286.94;5365390;26;20511;-82
2021/06/12 13:07:23;;;;;;;5.20;2.70;;;;;;;37.50;24.04;100289.59;5365923;26;20441;-82
2021/06/12 13:10:00;;;;;;;5.90;2.97;;;;;;;37.47;23.64;100289.97;5366927;26;20402;-83
2021/06/12 13:12:27;;;;;;;5.75;3.20;;;;;;;37.47;24.04;100285.34;5366807;26;20156;-82
2021/06/12 13:15:10;;;;;;;4.70;2.70;;;;;;;37.47;24.06;100274.37;5346423;26;20052;-82
2021/06/12 13:17:40;;;;;;;3.25;2.95;;;;;;;37.57;23.22;100276.88;5365254;26;20092;-82
2021/06/12 13:20:09;;;;;;;3.47;2.87;;;;;;;37.60;23.74;100281.13;5364977;26;20511;-82
2021/06/12 13:22:38;;;;;;;5.25;3.30;;;;;;;37.22;23.18;100270.16;5345366;26;20116;-82
2021/06/12 13:25:16;;;;;;;3.80;3.03;;;;;;;37.42;23.83;100276.81;5365762;26;20070;-82
2021/06/12 13:27:47;;;;;;;8.60;3.20;;;;;;;37.10;23.92;100272.50;5365470;26;20119;-82
2021/06/12 13:30:18;;;;;;;5.22;3.40;;;;;;;37.07;25.37;100272.03;5365754;26;20074;-82
2021/06/12 13:32:47;;;;;;;4.05;3.12;;;;;;;36.35;25.46;100265.75;5366390;26;20063;-81
2021/06/12 13:35:19;;;;;;;3.08;2.85;;;;;;;35.75;26.00;100266.34;5366694;26;20165;-83
2021/06/12 13:38:15;;;;;;;5.20;3.70;;;;;;;36.20;26.68;100262.09;5368988;26;20158;-82
2021/06/12 13:40:48;;;;;;;4.75;3.50;;;;;;;36.43;26.48;100258.56;5367892;26;20696;-83
2021/06/12 13:43:24;;;;;;;5.05;2.85;;;;;;;36.58;26.13;100254.03;5347592;26;20104;-82
2021/06/12 13:45:55;;;;;;;4.10;2.92;;;;;;;36.65;25.60;100251.41;5366193;26;20087;-82
2021/06/12 13:48:23;;;;;;;2.90;2.25;;;;;;;36.86;25.13;100261.69;5345429;26;20052;-82
2021/06/12 13:50:50;;;;;;;3.53;2.17;;;;;;;36.22;25.35;100256.47;5366745;26;20111;-82
2021/06/12 13:53:17;;;;;;;3.05;2.45;;;;;;;36.28;23.92;100259.31;5366462;26;20119;-82
2021/06/12 13:55:45;;;;;;;4.15;2.55;;;;;;;36.22;24.77;100268.25;5366238;26;20119;-82
2021/06/12 13:58:13;;;;;;;2.40;2.13;;;;;;;36.21;25.51;100266.56;5367450;26;20035;-82
2021/06/12 14:00:45;;;;;;;2.58;2.37;;;;;;;36.04;24.59;100256.72;5367512;26;20111;-83
2021/06/12 14:03:12;;;;;;;2.30;2.10;;;;;;;35.71;24.65;100257.66;5366729;26;20160;-82
2021/06/12 14:05:41;;;;;;;2.92;2.35;;;;;;;36.11;25.97;100253.06;5366599;26;20068;-83
2021/06/12 14:08:11;;;;;;;3.85;2.58;;;;;;;36.14;25.32;100260.91;5345586;26;20063;-83
2021/06/12 14:10:38;;;;;;;3.42;2.20;;;;;;;36.34;24.69;100250.41;5365721;26;20067;-83
2021/06/12 14:13:06;;;;;;;3.65;2.80;;;;;;;36.12;24.36;100243.87;5365354;26;20116;-83
2021/06/12 14:15:33;;;;;;;3.80;2.25;;;;;;;35.98;25.00;100250.03;5366206;26;20064;-83
2021/06/12 14:18:00;;;;;;;2.60;2.08;;;;;;;35.87;25.45;100250.44;5345594;26;20420;-82
2021/06/12 14:20:27;;;;;;;3.35;2.75;;;;;;;35.71;25.02;100249.47;5364948;26;20070;-82
2021/06/12 14:22:54;;;;;;;4.22;2.95;;;;;;;35.87;24.65;100245.81;5345566;26;20082;-82
2021/06/12 14:25:21;;;;;;;2.55;2.35;;;;;;;35.91;25.07;100252.62;5365238;26;20048;-82
2021/06/12 14:27:48;;;;;;;3.60;2.22;;;;;;;36.05;24.75;100245.59;5344690;26;20059;-83
2021/06/12 14:30:15;;;;;;;2.92;2.58;;;;;;;36.14;25.23;100249.12;5365052;26;20060;-83
2021/06/12 14:32:44;;;;;;;2.75;2.47;;;;;;;36.23;24.85;100247.22;5365542;26;20060;-83
2021/06/12 14:35:12;;;;;;;4.12;3.15;;;;;;;35.85;25.94;100241.53;5365624;26;20444;-82
2021/06/12 14:37:38;;;;;;;4.65;3.37;;;;;;;35.82;26.56;100242.75;5364848;26;20117;-82
2021/06/12 14:40:07;;;;;;;3.72;2.90;;;;;;;35.32;27.75;100241.16;5364804;26;20098;-82
2021/06/12 14:42:35;;;;;;;5.20;3.08;;;;;;;35.49;27.17;100240.09;5364069;26;20107;-82
2021/06/12 14:45:05;;;;;;;5.32;3.12;;;;;;;35.53;27.46;100229.66;5364212;26;20071;-82
2021/06/12 14:47:32;;;;;;;7.22;3.10;;;;;;;35.38;28.20;100237.72;5364391;26;20072;-82
2021/06/12 14:49:59;;;;;;;3.95;3.55;;;;;;;34.78;29.26;100236.19;5364360;26;20125;-82
2021/06/12 14:52:25;;;;;;;4.97;3.70;;;;;;;34.19;30.50;100234.53;5364316;26;20056;-82
2021/06/12 14:54:52;;;;;;;9.95;3.97;;;;;;;33.18;31.46;100244.19;5364245;26;20066;-82
2021/06/12 14:57:19;;;;;;;6.32;3.67;;;;;;;33.07;31.46;100239.00;5364675;26;20108;-82
2021/06/12 14:59:52;;;;;;;9.07;3.80;;;;;;;33.13;31.29;100235.62;5364332;26;20388;-82
2021/06/12 15:02:20;;;;;;;8.07;3.22;;;;;;;32.98;31.14;100239.91;5364283;26;20120;-82
2021/06/12 15:04:48;;;;;;;7.80;3.58;;;;;;;32.95;30.94;100240.22;5364612;26;20416;-83
2021/06/12 15:07:15;;;;;;;6.15;3.37;;;;;;;33.00;30.50;100238.78;5364957;26;20105;-82
2021/06/12 15:09:41;;;;;;;3.67;3.00;;;;;;;33.04;31.00;100238.47;5364140;26;20056;-82
2021/06/12 15:12:08;;;;;;;4.70;3.85;;;;;;;33.12;30.63;100239.38;5344278;26;20495;-82
2021/06/12 15:14:35;;;;;;;4.85;3.65;;;;;;;32.76;30.87;100235.78;5344143;26;20070;-82
2021/06/12 15:17:03;;;;;;;5.62;3.37;;;;;;;32.52;31.22;100233.69;5363875;26;20116;-82
2021/06/12 15:19:30;;;;;;;4.53;2.85;;;;;;;32.86;30.54;100225.69;5362513;26;20072;-82
2021/06/12 15:21:58;;;;;;;4.45;2.92;;;;;;;32.25;32.19;100229.16;5362295;26;20076;-82
2021/06/12 15:24:25;;;;;;;6.87;3.05;;;;;;;32.73;30.90;100220.63;5363760;26;20493;-82
2021/06/12 15:26:52;;;;;;;6.75;3.33;;;;;;;33.01;30.95;100226.00;5364044;26;20056;-82
2021/06/12 15:29:19;;;;;;;5.18;3.30;;;;;;;32.73;30.97;100223.34;5363808;26;20398;-82
2021/06/12 15:31:46;;;;;;;4.30;3.05;;;;;;;32.90;31.03;100210.75;5343646;26;20059;-82
2021/06/12 15:34:13;;;;;;;4.62;2.95;;;;;;;32.89;31.30;100219.94;5363907;26;20183;-82
2021/06/12 15:36:40;;;;;;;3.75;2.87;;;;;;;32.74;31.35;100210.63;5364113;26;20394;-82
2021/06/12 15:39:08;;;;;;;5.82;4.10;;;;;;;33.04;31.08;100213.97;5364556;26;20086;-82
2021/06/12 15:41:35;;;;;;;4.80;3.30;;;;;;;33.01;30.49;100215.12;5343825;26;20082;-82
2021/06/12 15:44:02;;;;;;;5.53;3.35;;;;;;;32.73;31.24;100209.75;5364925;26;20458;-82
2021/06/12 15:46:29;;;;;;;3.50;2.75;;;;;;;32.87;30.99;100205.63;5364616;26;20721;-82
2021/06/12 15:48:56;;;;;;;3.62;2.85;;;;;;;33.07;30.09;100195.44;5364747;26;20067;-83
2021/06/12 15:51:23;;;;;;;4.40;3.17;;;;;;;32.98;31.06;100199.09;5364022;26;20536;-82
2021/06/12 15:53:50;;;;;;;8.52;3.55;;;;;;;33.04;30.69;100200.34;5363897;26;20116;-82
2021/06/12 15:56:17;;;;;;;5.22;3.37;;;;;;;33.04;30.60;100190.31;5363748;26;20035;-82
2021/06/12 15:58:44;;;;;;;4.03;2.92;;;;;;;33.04;31.36;100178.59;5363917;26;20028;-83
2021/06/12 16:01:11;;;;;;;6.07;3.72;;;;;;;33.23;30.89;100190.09;5343831;26;20064;-82
2021/06/12 16:03:38;;;;;;;4.65;3.05;;;;;;;33.27;31.48;100190.66;5364077;26;20123;-82
2021/06/12 16:06:04;;;;;;;3.60;3.30;;;;;;;32.83;31.81;100203.37;5364491;26;20061;-83
2021/06/12 16:08:31;;;;;;;5.28;3.62;;;;;;;33.05;31.63;100196.59;5365030;26;20071;-82
2021/06/12 16:10:58;;;;;;;5.62;3.47;;;;;;;32.93;31.53;100201.41;5365422;26;20579;-82
2021/06/12 16:13:25;;;;;;;8.23;4.60;;;;;;;33.16;31.80;100205.38;5345081;26;20482;-82
2021/06/12 16:15:52;;;;;;;5.62;3.70;;;;;;;32.67;31.57;100194.06;5326644;26;20063;-82
2021/06/12 16:18:19;;;;;;;4.40;3.50;;;;;;;33.12;32.27;100193.09;5363128;26;20072;-82
2021/06/12 16:20:46;;;;;;;5.30;3.53;;;;;;;33.19;32.58;100176.97;5365299;26;20076;-82
2021/06/12 16:23:13;;;;;;;4.95;2.90;;;;;;;33.01;30.44;100179.75;5365088;26;20055;-82
2021/06/12 16:25:40;;;;;;;3.70;3.22;;;;;;;33.01;30.82;100169.72;5364863;26;20058;-82
2021/06/12 16:28:07;;;;;;;5.85;3.37;;;;;;;33.10;31.27;100165.19;5365271;26;20056;-82
2021/06/12 16:30:34;;;;;;;6.60;3.60;;;;;;;33.15;31.56;100165.56;5364871;26;20109;-82
2021/06/12 16:33:02;;;;;;;5.70;2.85;;;;;;;33.07;31.36;100172.81;5364776;26;20039;-82
2021/06/12 16:35:29;;;;;;;4.53;2.75;;;;;;;33.03;31.13;100166.81;5364766;26;20408;-82
2021/06/12 16:37:57;;;;;;;3.33;3.03;;;;;;;32.99;31.67;100166.28;5365103;26;20086;-82
2021/06/12 16:40:24;;;;;;;4.70;3.17;;;;;;;32.90;31.46;100156.34;5365073;26;20060;-82
2021/06/12 16:42:51;;;;;;;4.07;2.83;;;;;;;33.00;31.31;100168.03;5364813;26;20028;-83
2021/06/12 16:45:20;;;;;;;3.25;2.95;;;;;;;32.77;32.08;100167.62;5345279;26;20109;-82
2021/06/12 16:47:47;;;;;;;4.68;3.03;;;;;;;32.92;31.94;100167.06;5365258;26;20265;-86
2021/06/12 16:50:16;;;;;;;4.70;3.20;;;;;;;32.76;33.25;100168.63;5365509;26;20060;-83
2021/06/12 16:52:44;;;;;;;4.25;3.20;;;;;;;33.05;33.12;100164.78;5365090;26;20413;-83
2021/06/12 16:56:04;;;;;;;7.57;3.50;;;;;;;33.05;33.59;100169.41;5364872;26;20096;-83
2021/06/12 17:00:37;;;;;;;5.28;3.25;;;;;;;32.86;33.08;100162.28;5364906;26;20733;-84
2021/06/12 17:03:06;;;;;;;7.43;3.42;;;;;;;32.79;33.47;100165.59;5364571;26;20082;-83
2021/06/12 17:05:32;;;;;;;6.55;4.00;;;;;;;32.68;33.89;100170.44;5364765;26;20420;-84
2021/06/12 17:08:04;;;;;;;9.73;4.20;;;;;;;32.65;33.47;100168.91;5364535;26;20108;-84
2021/06/12 17:10:31;;;;;;;3.40;3.10;;;;;;;32.65;33.20;100173.47;5364642;26;20074;-84
2021/06/12 17:12:59;;;;;;;3.05;2.75;;;;;;;32.31;33.21;100176.88;5364823;26;20086;-83
2021/06/12 17:15:26;;;;;;;5.18;3.50;;;;;;;32.30;32.89;100175.19;5344575;26;20063;-83
2021/06/12 17:17:53;;;;;;;4.10;3.42;;;;;;;32.26;33.43;100181.91;5364747;26;20080;-83
2021/06/12 17:20:21;;;;;;;7.82;4.45;;;;;;;32.42;33.40;100183.97;5365077;26;20056;-83
2021/06/12 17:22:48;;;;;;;4.55;4.07;;;;;;;32.43;33.38;100186.50;5364837;26;20112;-83
2021/06/12 17:25:15;;;;;;;4.20;3.80;;;;;;;32.03;34.18;100190.53;5364329;26;20371;-83
2021/06/12 17:27:42;;;;;;;3.95;3.55;;;;;;;32.05;34.18;100184.91;5364549;26;20116;-86
2021/06/12 17:30:11;;;;;;;5.65;4.15;;;;;;;31.63;35.27;100179.97;5364714;26;20059;-83
2021/06/12 17:32:38;;;;;;;5.43;4.03;;;;;;;31.64;35.09;100184.41;5364520;26;20134;-84
2021/06/12 17:35:07;;;;;;;4.72;3.40;;;;;;;31.70;35.37;100178.34;5363208;26;20056;-83
2021/06/12 17:37:34;;;;;;;5.18;3.92;;;;;;;31.66;35.80;100188.66;5364294;26;20056;-83
2021/06/12 17:40:04;;;;;;;11.85;3.97;;;;;;;31.24;36.34;100188.25;5364425;26;20103;-84
2021/06/12 17:42:31;;;;;;;4.93;3.62;;;;;;;31.10;36.53;100186.00;5364450;26;20072;-83
2021/06/12 17:44:58;;;;;;;5.53;4.37;;;;;;;31.11;36.89;100187.69;5364570;26;20048;-83
2021/06/12 17:47:25;;;;;;;5.32;3.50;;;;;;;31.22;37.47;100182.09;5364276;26;20443;-83
2021/06/12 17:49:53;;;;;;;4.03;3.47;;;;;;;30.68;38.13;100183.56;5364389;26;20059;-83
2021/06/12 17:52:20;;;;;;;6.87;4.55;;;;;;;30.97;38.25;100170.88;5364282;26;20060;-83
2021/06/12 17:54:47;;;;;;;4.45;3.92;;;;;;;31.02;37.30;100175.00;5364667;26;20052;-83
2021/06/12 17:57:13;;;;;;;4.32;3.30;;;;;;;31.16;37.02;100171.84;5344154;26;20071;-83
2021/06/12 17:59:41;;;;;;;5.00;3.83;;;;;;;31.16;36.76;100174.53;5364593;26;20120;-83
2021/06/12 18:02:08;;;;;;;4.12;3.78;;;;;;;31.07;36.33;100167.28;5364452;26;20051;-83
2021/06/12 18:04:35;;;;;;;38.47;6.45;;;;;;;30.69;36.52;100169.88;5344362;26;20048;-83
2021/06/12 18:07:02;;;;;;;24.23;5.28;;;;;;;30.57;36.52;100157.47;5345090;26;20079;-84
2021/06/12 18:09:29;;;;;;;5.18;3.53;;;;;;;30.68;36.16;100170.00;5364294;26;20120;-83
2021/06/12 18:11:56;;;;;;;4.82;3.75;;;;;;;30.72;36.61;100174.16;5364410;26;20999;-84
2021/06/12 18:14:23;;;;;;;4.15;2.97;;;;;;;30.67;36.93;100173.72;5362976;26;20402;-83
2021/06/12 18:16:50;;;;;;;4.05;3.33;;;;;;;30.74;36.54;100169.47;5365069;26;20113;-83
2021/06/12 18:19:17;;;;;;;5.85;3.12;;;;;;;30.67;35.89;100168.31;5362800;26;20063;-83
2021/06/12 18:21:44;;;;;;;4.10;3.70;;;;;;;30.65;35.54;100164.88;5364334;26;20082;-83
2021/06/12 18:24:11;;;;;;;5.82;3.20;;;;;;;30.71;35.20;100164.31;5364294;26;20059;-83
2021/06/12 18:26:40;;;;;;;5.28;3.90;;;;;;;30.61;35.19;100163.47;5364214;26;20120;-83
2021/06/12 18:29:07;;;;;;;2.93;2.63;;;;;;;30.60;35.44;100161.75;5363919;26;20094;-84
2021/06/12 18:31:34;;;;;;;4.18;3.00;;;;;;;30.57;35.13;100164.75;5364316;26;20061;-83
2021/06/12 18:34:02;;;;;;;5.05;3.53;;;;;;;30.46;35.61;100166.59;5364424;26;20047;-83
2021/06/12 18:36:29;;;;;;;4.15;3.00;;;;;;;30.42;35.76;100175.19;5362847;26;20613;-84
2021/06/12 18:38:56;;;;;;;5.05;3.53;;;;;;;30.31;35.71;100179.72;5344190;26;20099;-83
2021/06/12 18:41:23;;;;;;;4.07;3.03;;;;;;;30.36;35.83;100184.72;5364326;26;20051;-84
2021/06/12 18:43:50;;;;;;;4.10;2.90;;;;;;;30.24;36.27;100184.00;5363976;26;20056;-84
2021/06/12 18:46:16;;;;;;;5.75;3.30;;;;;;;29.89;36.87;100189.91;5364064;26;20115;-83
2021/06/12 18:48:44;;;;;;;4.07;3.17;;;;;;;29.91;36.53;100196.00;5364058;26;20061;-84
2021/06/12 18:51:11;;;;;;;3.75;3.05;;;;;;;29.80;36.58;100188.00;5364343;26;20401;-83
2021/06/12 18:53:58;;;;;;;3.20;2.62;;;;;;;29.77;36.41;100186.44;5364122;26;20055;-84
2021/06/12 18:56:25;;;;;;;3.47;2.80;;;;;;;29.46;36.17;100180.16;5363978;26;20127;-83
2021/06/12 18:58:52;;;;;;;3.30;2.80;;;;;;;29.15;36.72;100185.56;5364122;26;20059;-83
2021/06/12 19:01:20;;;;;;;3.72;2.85;;;;;;;29.16;36.67;100181.84;5344416;26;20471;-83
2021/06/12 19:03:56;;;;;;;4.82;2.87;;;;;;;29.00;36.75;100192.22;5362785;26;20123;-84
2021/06/12 19:06:23;;;;;;;3.35;2.70;;;;;;;29.05;36.72;100200.00;5364360;26;20076;-83
2021/06/12 19:08:49;;;;;;;5.28;2.85;;;;;;;28.90;37.18;100196.72;5364611;26;20060;-84
2021/06/12 19:11:16;;;;;;;4.55;3.05;;;;;;;28.88;37.76;100202.25;5364648;26;20071;-84
2021/06/12 19:13:43;;;;;;;6.22;3.55;;;;;;;28.81;38.53;100209.19;5364539;26;20072;-83
2021/06/12 19:16:10;;;;;;;6.55;3.60;;;;;;;28.28;39.68;100212.69;5364614;26;20068;-84
2021/06/12 19:18:39;;;;;;;4.32;3.28;;;;;;;28.07;39.39;100206.34;5365403;26;20063;-84
2021/06/12 19:21:07;;;;;;;3.50;3.12;;;;;;;27.93;40.63;100212.88;5364869;26;20067;-84
2021/06/12 19:23:34;;;;;;;6.10;3.28;;;;;;;27.92;40.89;100213.03;5364701;26;20119;-84
2021/06/12 19:26:01;;;;;;;7.15;3.22;;;;;;;27.97;40.94;100213.47;5364281;26;20400;-83
2021/06/12 19:28:28;;;;;;;4.10;3.25;;;;;;;27.73;40.81;100210.91;5364279;26;20100;-83
2021/06/12 19:30:55;;;;;;;4.50;3.22;;;;;;;27.84;40.72;100208.22;5364256;26;20115;-84
2021/06/12 19:33:22;;;;;;;6.62;3.72;;;;;;;27.61;41.95;100202.81;5364240;26;20101;-84
2021/06/12 19:41:04;;;;;;;4.90;3.20;;;;;;;27.68;41.42;100196.91;5364915;26;20131;-84
2021/06/12 19:43:31;;;;;;;7.05;3.53;;;;;;;27.33;42.70;100203.31;5365700;26;20056;-83
2021/06/12 19:45:59;;;;;;;4.50;3.47;;;;;;;27.28;42.55;100194.72;5366082;26;20056;-85
2021/06/12 19:48:27;;;;;;;5.75;3.55;;;;;;;27.49;42.26;100195.69;5365672;26;20079;-84
2021/06/12 19:50:57;;;;;;;4.93;3.67;;;;;;;27.18;43.69;100202.66;5365733;26;20079;-84
2021/06/12 19:53:26;;;;;;;5.20;3.50;;;;;;;27.10;44.10;100202.38;5366176;26;20067;-83
2021/06/12 19:55:53;;;;;;;8.63;4.07;;;;;;;26.71;45.08;100201.78;5345455;26;20032;-84
2021/06/12 19:58:20;;;;;;;7.07;4.45;;;;;;;27.00;44.33;100187.88;5365840;26;20066;-84
2021/06/12 20:00:47;;;;;;;8.18;4.65;;;;;;;25.84;48.23;100190.25;5366051;26;20047;-84
2021/06/12 20:03:14;;;;;;;7.97;3.95;;;;;;;26.29;46.91;100190.53;5364318;26;20044;-84
2021/06/12 20:05:41;;;;;;;6.78;4.30;;;;;;;25.88;47.95;100189.03;5366267;26;20070;-84
2021/06/12 20:08:10;;;;;;;7.50;4.95;;;;;;;25.56;48.70;100191.34;5365911;26;20063;-86
2021/06/12 20:10:37;;;;;;;4.97;4.30;;;;;;;25.70;47.89;100193.03;5365979;26;20052;-85
2021/06/12 20:13:04;;;;;;;6.90;3.70;;;;;;;24.77;50.56;100195.06;5365780;26;20119;-85
2021/06/12 20:15:31;;;;;;;4.93;4.40;;;;;;;25.35;47.54;100191.03;5345682;26;20591;-85
2021/06/12 20:17:58;;;;;;;5.30;4.03;;;;;;;25.47;47.41;100189.31;5366623;26;20070;-84
2021/06/12 20:20:24;;;;;;;7.07;4.10;;;;;;;25.77;47.42;100188.97;5365387;26;20111;-84
2021/06/12 20:22:52;;;;;;;6.72;3.60;;;;;;;25.28;48.41;100187.94;5365568;26;20052;-84
2021/06/12 20:25:20;;;;;;;6.07;3.53;;;;;;;25.23;48.41;100195.44;5365376;26;20091;-84
2021/06/12 20:27:47;;;;;;;7.40;3.90;;;;;;;25.29;47.17;100192.31;5365496;26;20113;-84
2021/06/12 20:30:15;;;;;;;5.53;4.10;;;;;;;25.39;48.09;100189.87;5365279;26;20063;-84
2021/06/12 20:32:43;;;;;;;8.98;3.92;;;;;;;25.08;48.51;100188.44;5365777;26;20060;-85
2021/06/12 20:35:11;;;;;;;5.03;4.03;;;;;;;25.45;47.93;100184.06;5365564;26;20056;-84
2021/06/12 20:37:38;;;;;;;5.20;3.72;;;;;;;25.34;48.16;100187.50;5365712;26;20629;-85
2021/06/12 20:40:07;;;;;;;5.95;4.10;;;;;;;25.33;47.25;100191.16;5365677;26;20048;-85
2021/06/12 20:42:33;;;;;;;5.85;4.30;;;;;;;25.52;47.35;100188.00;5365556;26;20048;-85
2021/06/12 20:45:00;;;;;;;4.95;4.07;;;;;;;25.75;47.21;100191.75;5365766;26;20095;-85
2021/06/12 20:47:27;;;;;;;5.82;4.07;;;;;;;25.38;47.90;100199.78;5345504;26;20063;-84
2021/06/12 20:49:54;;;;;;;6.80;3.80;;;;;;;25.06;48.20;100198.41;5365653;26;20452;-84
2021/06/12 20:52:21;;;;;;;7.07;4.32;;;;;;;25.11;48.32;100196.28;5365252;26;20059;-85
2021/06/12 20:54:48;;;;;;;4.50;4.03;;;;;;;25.18;46.96;100194.94;5365164;26;20071;-84
2021/06/12 20:57:14;;;;;;;5.75;3.72;;;;;;;25.02;48.67;100187.03;5365561;26;20059;-85
2021/06/12 20:59:41;;;;;;;9.15;4.75;;;;;;;24.80;49.74;100197.56;5365404;26;20433;-85
2021/06/12 21:02:08;;;;;;;5.65;4.60;;;;;;;24.32;51.78;100189.94;5365592;26;20394;-85
2021/06/12 21:04:36;;;;;;;5.85;4.03;;;;;;;24.84;49.36;100193.69;5365546;26;20401;-84
2021/06/12 21:07:04;;;;;;;5.97;3.90;;;;;;;24.83;48.87;100183.91;5363752;26;20135;-85
2021/06/12 21:09:31;;;;;;;7.28;4.25;;;;;;;24.80;49.91;100182.28;5365574;26;20034;-85
2021/06/12 21:11:57;;;;;;;6.45;4.40;;;;;;;24.88;48.72;100182.63;5365519;26;20133;-85
2021/06/12 21:14:24;;;;;;;6.15;4.37;;;;;;;24.21;52.10;100173.72;5365613;26;20067;-85
2021/06/12 21:16:51;;;;;;;6.72;4.87;;;;;;;24.66;50.74;100174.31;5365252;26;20063;-85
2021/06/12 21:19:18;;;;;;;8.48;5.03;;;;;;;23.98;53.08;100178.75;5345522;26;20055;-85